createdAt,value
2018-08-18T00:00:47.245Z,63.69
2018-08-18T00:01:47.393Z,64.08
2018-08-18T00:02:47.535Z,63.98
2018-08-18T00:03:47.676Z,64.08
2018-08-18T00:04:47.816Z,63.69
2018-08-18T00:05:47.967Z,63.69
2018-08-18T00:06:48.112Z,63.60
2018-08-18T00:07:48.254Z,63.79
2018-08-18T00:08:48.387Z,63.89
2018-08-18T00:09:48.532Z,64.18
2018-08-18T00:10:48.681Z,64.08
2018-08-18T00:11:48.817Z,63.89
2018-08-18T00:12:48.963Z,64.18
2018-08-18T00:13:49.099Z,63.79
2018-08-18T00:14:49.237Z,64.18
2018-08-18T00:15:49.367Z,64.18
2018-08-18T00:16:49.529Z,63.98
2018-08-18T00:17:49.670Z,63.89
2018-08-18T00:18:49.804Z,63.98
2018-08-18T00:19:49.949Z,63.98
2018-08-18T00:20:50.087Z,63.89
2018-08-18T00:21:50.232Z,64.08
2018-08-18T00:22:50.366Z,64.18
2018-08-18T00:23:50.515Z,64.08
2018-08-18T00:24:50.651Z,63.79
2018-08-18T00:25:50.806Z,64.08
2018-08-18T00:26:50.949Z,63.89
2018-08-18T00:27:51.099Z,64.18
2018-08-18T00:28:51.238Z,64.18
2018-08-18T00:29:51.351Z,63.98
2018-08-18T00:30:51.483Z,63.89
2018-08-18T00:31:51.629Z,63.98
2018-08-18T00:32:51.767Z,64.18
2018-08-18T00:33:51.910Z,63.98
2018-08-18T00:34:52.067Z,64.08
2018-08-18T00:35:52.204Z,64.18
2018-08-18T00:36:52.420Z,64.08
2018-08-18T00:37:52.512Z,64.08
2018-08-18T00:38:52.654Z,63.98
2018-08-18T00:39:52.793Z,64.37
2018-08-18T00:40:52.939Z,64.56
2018-08-18T00:41:53.135Z,65.14
2018-08-18T00:42:53.218Z,65.05
2018-08-18T00:43:53.356Z,65.11
2018-08-18T00:44:53.500Z,65.05
2018-08-18T00:45:53.660Z,64.82
2018-08-18T00:46:53.798Z,65.05
2018-08-18T00:47:53.942Z,65.01
2018-08-18T00:48:54.087Z,64.95
2018-08-18T00:49:54.265Z,64.92
2018-08-18T00:50:54.407Z,64.72
2018-08-18T00:51:54.546Z,64.82
2018-08-18T00:52:54.701Z,64.53
2018-08-18T00:53:54.837Z,65.20
2018-08-18T00:54:54.984Z,65.50
2018-08-18T00:55:56.711Z,65.50
2018-08-18T00:56:58.128Z,65.01
2018-08-18T00:57:55.380Z,65.20
2018-08-18T00:58:55.524Z,65.40
2018-08-18T00:59:55.663Z,65.20
2018-08-18T01:00:55.803Z,65.59
2018-08-18T01:01:55.944Z,65.78
2018-08-18T01:02:56.091Z,65.40
2018-08-18T01:03:56.232Z,65.59
2018-08-18T01:04:56.375Z,65.30
2018-08-18T01:05:56.518Z,65.50
2018-08-18T01:06:56.662Z,65.40
2018-08-18T01:07:56.804Z,65.30
2018-08-18T01:08:56.948Z,65.50
2018-08-18T01:09:57.090Z,65.78
2018-08-18T01:10:57.317Z,66.14
2018-08-18T01:11:57.543Z,66.14
2018-08-18T01:12:57.656Z,65.95
2018-08-18T01:13:57.722Z,66.72
2018-08-18T01:14:57.983Z,66.63
2018-08-18T01:15:57.981Z,66.33
2018-08-18T01:16:58.128Z,66.33
2018-08-18T01:17:58.269Z,66.05
2018-08-18T01:18:58.411Z,66.43
2018-08-18T01:19:58.551Z,66.24
2018-08-18T01:20:58.688Z,66.33
2018-08-18T01:21:58.832Z,66.33
2018-08-18T01:22:58.972Z,66.14
2018-08-18T01:23:59.123Z,66.43
2018-08-18T01:24:59.259Z,66.72
2018-08-18T01:25:59.407Z,66.63
2018-08-18T01:26:59.575Z,66.33
2018-08-18T01:27:59.706Z,66.63
2018-08-18T01:28:59.853Z,66.82
2018-08-18T01:30:00.008Z,66.82
2018-08-18T01:31:00.142Z,67.20
2018-08-18T01:32:00.280Z,66.72
2018-08-18T01:33:00.461Z,66.72
2018-08-18T01:34:00.543Z,66.82
2018-08-18T01:35:00.675Z,66.88
2018-08-18T01:36:00.816Z,66.78
2018-08-18T01:37:00.995Z,67.36
2018-08-18T01:38:01.127Z,67.94
2018-08-18T01:39:01.274Z,67.65
2018-08-18T01:40:01.438Z,67.75
2018-08-18T01:41:01.570Z,67.75
2018-08-18T01:42:01.704Z,68.04
2018-08-18T01:43:01.869Z,68.81
2018-08-18T01:44:02.006Z,68.62
2018-08-18T01:45:02.148Z,68.52
2018-08-18T01:46:02.296Z,68.52
2018-08-18T01:47:02.437Z,68.43
2018-08-18T01:48:02.581Z,68.71
2018-08-18T01:49:02.716Z,69.00
2018-08-18T01:50:02.879Z,69.00
2018-08-18T01:51:03.011Z,68.81
2018-08-18T01:52:03.152Z,68.97
2018-08-18T01:53:03.299Z,68.62
2018-08-18T01:54:03.477Z,68.91
2018-08-18T01:55:03.606Z,69.00
2018-08-18T01:56:03.743Z,69.20
2018-08-18T01:57:03.886Z,69.10
2018-08-18T01:58:04.053Z,69.10
2018-08-18T01:59:04.187Z,69.20
2018-08-18T02:00:04.329Z,69.10
2018-08-18T02:01:04.461Z,69.20
2018-08-18T02:02:04.623Z,69.10
2018-08-18T02:03:04.753Z,69.10
2018-08-18T02:04:04.898Z,68.62
2018-08-18T02:05:05.039Z,68.43
2018-08-18T02:06:05.175Z,68.62
2018-08-18T02:07:05.309Z,68.43
2018-08-18T02:08:05.448Z,68.91
2018-08-18T02:09:05.591Z,68.91
2018-08-18T02:10:05.730Z,68.81
2018-08-18T02:11:05.874Z,68.62
2018-08-18T02:12:06.012Z,68.91
2018-08-18T02:13:06.148Z,68.62
2018-08-18T02:14:06.291Z,68.23
2018-08-18T02:15:06.430Z,68.62
2018-08-18T02:16:06.600Z,68.81
2018-08-18T02:17:06.717Z,68.81
2018-08-18T02:18:06.860Z,68.71
2018-08-18T02:19:07.004Z,68.81
2018-08-18T02:20:07.234Z,68.13
2018-08-18T02:21:07.280Z,68.52
2018-08-18T02:22:07.422Z,68.62
2018-08-18T02:23:07.566Z,68.13
2018-08-18T02:24:07.699Z,68.52
2018-08-18T02:25:07.845Z,68.62
2018-08-18T02:26:07.983Z,68.43
2018-08-18T02:27:08.126Z,68.62
2018-08-18T02:28:08.267Z,68.33
2018-08-18T02:29:08.407Z,68.71
2018-08-18T02:30:08.547Z,68.62
2018-08-18T02:31:08.686Z,69.00
2018-08-18T02:32:08.827Z,68.81
2018-08-18T02:33:08.968Z,69.00
2018-08-18T02:34:09.110Z,69.00
2018-08-18T02:35:09.837Z,68.59
2018-08-18T02:36:09.411Z,68.52
2018-08-18T02:37:09.549Z,68.81
2018-08-18T02:38:09.688Z,68.81
2018-08-18T02:39:09.826Z,68.81
2018-08-18T02:40:09.997Z,68.62
2018-08-18T02:41:10.124Z,68.68
2018-08-18T02:42:10.268Z,68.71
2018-08-18T02:43:10.404Z,68.97
2018-08-18T02:44:10.566Z,69.16
2018-08-18T02:45:10.704Z,69.07
2018-08-18T02:46:10.861Z,69.35
2018-08-18T02:47:10.987Z,69.35
2018-08-18T02:48:11.144Z,69.16
2018-08-18T02:49:11.278Z,69.35
2018-08-18T02:50:12.019Z,69.16
2018-08-18T02:51:11.591Z,69.16
2018-08-18T02:52:11.720Z,69.26
2018-08-18T02:53:11.864Z,69.84
2018-08-18T02:54:12.003Z,69.84
2018-08-18T02:55:12.156Z,69.35
2018-08-18T02:56:12.296Z,70.03
2018-08-18T02:57:12.430Z,69.93
2018-08-18T02:58:12.577Z,69.84
2018-08-18T02:59:12.722Z,69.84
2018-08-18T03:00:12.965Z,70.13
2018-08-18T03:01:12.969Z,69.84
2018-08-18T03:02:13.109Z,69.93
2018-08-18T03:03:13.284Z,69.93
2018-08-18T03:04:13.417Z,70.13
2018-08-18T03:05:13.556Z,70.03
2018-08-18T03:06:13.696Z,69.74
2018-08-18T03:07:13.841Z,69.74
2018-08-18T03:08:13.998Z,69.74
2018-08-18T03:09:14.112Z,69.55
2018-08-18T03:10:14.253Z,69.74
2018-08-18T03:11:14.416Z,69.64
2018-08-18T03:12:14.553Z,69.84
2018-08-18T03:13:14.694Z,70.03
2018-08-18T03:14:14.846Z,70.03
2018-08-18T03:15:14.979Z,70.13
2018-08-18T03:16:15.118Z,69.84
2018-08-18T03:17:15.257Z,69.64
2018-08-18T03:18:15.400Z,69.64
2018-08-18T03:19:15.536Z,69.74
2018-08-18T03:20:15.672Z,70.00
2018-08-18T03:21:15.810Z,70.03
2018-08-18T03:22:15.952Z,70.03
2018-08-18T03:23:16.087Z,69.93
2018-08-18T03:24:16.232Z,69.84
2018-08-18T03:25:16.370Z,69.64
2018-08-18T03:26:16.513Z,69.74
2018-08-18T03:27:16.653Z,69.42
2018-08-18T03:28:16.786Z,69.45
2018-08-18T03:29:16.929Z,69.51
2018-08-18T03:30:17.071Z,70.00
2018-08-18T03:31:17.216Z,70.22
2018-08-18T03:32:17.348Z,69.90
2018-08-18T03:33:17.492Z,70.48
2018-08-18T03:34:17.634Z,70.57
2018-08-18T03:35:17.769Z,70.57
2018-08-18T03:36:17.910Z,70.28
2018-08-18T03:37:18.048Z,70.28
2018-08-18T03:38:18.199Z,70.00
2018-08-18T03:39:18.344Z,70.57
2018-08-18T03:40:18.486Z,70.28
2018-08-18T03:41:18.625Z,71.06
2018-08-18T03:42:18.761Z,70.96
2018-08-18T03:43:18.912Z,71.34
2018-08-18T03:44:19.053Z,71.50
2018-08-18T03:45:19.232Z,71.31
2018-08-18T03:46:19.380Z,71.44
2018-08-18T03:47:19.533Z,71.02
2018-08-18T03:48:19.674Z,71.41
2018-08-18T03:49:19.813Z,71.25
2018-08-18T03:50:19.952Z,71.50
2018-08-18T03:51:20.093Z,71.89
2018-08-18T03:52:20.283Z,71.54
2018-08-18T03:53:20.373Z,71.73
2018-08-18T03:54:20.518Z,72.02
2018-08-18T03:55:20.646Z,71.54
2018-08-18T03:56:20.785Z,71.22
2018-08-18T03:57:20.941Z,72.18
2018-08-18T03:58:21.075Z,71.44
2018-08-18T03:59:21.215Z,71.64
2018-08-18T04:00:21.350Z,71.34
2018-08-18T04:01:21.519Z,71.73
2018-08-18T04:02:21.643Z,71.64
2018-08-18T04:03:21.783Z,71.83
2018-08-18T04:04:21.921Z,71.83
2018-08-18T04:05:22.059Z,71.25
2018-08-18T04:06:22.198Z,71.15
2018-08-18T04:07:22.354Z,70.96
2018-08-18T04:08:22.493Z,71.34
2018-08-18T04:09:22.684Z,70.96
2018-08-18T04:10:22.774Z,71.44
2018-08-18T04:11:22.918Z,71.25
2018-08-18T04:12:23.057Z,71.44
2018-08-18T04:13:23.194Z,71.06
2018-08-18T04:14:23.353Z,71.34
2018-08-18T04:15:23.484Z,71.83
2018-08-18T04:16:23.621Z,71.73
2018-08-18T04:17:23.763Z,71.25
2018-08-18T04:18:23.927Z,71.25
2018-08-18T04:19:24.065Z,71.06
2018-08-18T04:20:24.208Z,71.83
2018-08-18T04:21:24.341Z,72.02
2018-08-18T04:22:24.507Z,71.92
2018-08-18T04:23:24.641Z,71.64
2018-08-18T04:24:24.779Z,71.73
2018-08-18T04:25:24.964Z,71.64
2018-08-18T04:26:25.058Z,71.73
2018-08-18T04:27:25.193Z,71.73
2018-08-18T04:28:25.338Z,71.73
2018-08-18T04:29:25.483Z,71.64
2018-08-18T04:30:25.654Z,71.54
2018-08-18T04:31:25.790Z,71.73
2018-08-18T04:32:25.936Z,71.83
2018-08-18T04:33:26.071Z,71.83
2018-08-18T04:34:26.234Z,71.64
2018-08-18T04:35:26.393Z,71.34
2018-08-18T04:36:26.513Z,71.54
2018-08-18T04:37:26.655Z,71.54
2018-08-18T04:38:26.788Z,71.83
2018-08-18T04:39:26.931Z,71.92
2018-08-18T04:40:27.066Z,71.34
2018-08-18T04:41:27.203Z,71.44
2018-08-18T04:42:27.401Z,71.25
2018-08-18T04:43:27.540Z,72.02
2018-08-18T04:44:27.687Z,71.64
2018-08-18T04:45:27.825Z,71.54
2018-08-18T04:46:27.967Z,71.64
2018-08-18T04:47:28.101Z,71.64
2018-08-18T04:48:28.235Z,71.83
2018-08-18T04:49:28.384Z,70.96
2018-08-18T04:50:28.568Z,71.25
2018-08-18T04:51:28.663Z,71.34
2018-08-18T04:52:28.800Z,71.15
2018-08-18T04:53:28.946Z,71.15
2018-08-18T04:54:29.090Z,71.25
2018-08-18T04:55:29.231Z,71.15
2018-08-18T04:56:29.371Z,71.73
2018-08-18T04:57:29.519Z,71.54
2018-08-18T04:58:29.655Z,71.25
2018-08-18T04:59:29.899Z,71.92
2018-08-18T05:00:29.934Z,71.92
2018-08-18T05:01:30.075Z,71.73
2018-08-18T05:02:30.214Z,71.64
2018-08-18T05:03:30.428Z,71.64
2018-08-18T05:04:30.489Z,71.73
2018-08-18T05:05:30.635Z,71.73
2018-08-18T05:06:30.780Z,71.64
2018-08-18T05:07:30.919Z,71.92
2018-08-18T05:08:31.058Z,71.92
2018-08-18T05:09:31.207Z,71.92
2018-08-18T05:10:31.341Z,71.92
2018-08-18T05:11:31.511Z,71.73
2018-08-18T05:12:31.623Z,71.64
2018-08-18T05:13:31.765Z,71.92
2018-08-18T05:14:31.907Z,71.54
2018-08-18T05:15:32.051Z,72.41
2018-08-18T05:16:32.189Z,71.92
2018-08-18T05:17:32.330Z,71.92
2018-08-18T05:18:32.470Z,72.12
2018-08-18T05:19:32.608Z,72.02
2018-08-18T05:20:32.773Z,72.41
2018-08-18T05:21:32.900Z,72.41
2018-08-18T05:22:33.048Z,72.99
2018-08-18T05:23:33.190Z,72.89
2018-08-18T05:24:33.338Z,72.89
2018-08-18T05:25:33.475Z,72.99
2018-08-18T05:26:33.621Z,72.31
2018-08-18T05:27:33.749Z,72.79
2018-08-18T05:28:33.915Z,72.69
2018-08-18T05:29:34.054Z,72.60
2018-08-18T05:30:34.200Z,72.50
2018-08-18T05:31:34.325Z,72.99
2018-08-18T05:32:34.548Z,72.31
2018-08-18T05:33:34.562Z,72.69
2018-08-18T05:34:34.706Z,72.31
2018-08-18T05:35:34.859Z,72.12
2018-08-18T05:36:35.093Z,72.60
2018-08-18T05:37:35.155Z,72.12
2018-08-18T05:38:35.298Z,72.02
2018-08-18T05:39:35.442Z,71.44
2018-08-18T05:40:35.574Z,71.92
2018-08-18T05:41:35.745Z,72.02
2018-08-18T05:42:35.881Z,71.86
2018-08-18T05:43:36.038Z,71.96
2018-08-18T05:44:36.177Z,71.96
2018-08-18T05:45:36.319Z,72.02
2018-08-18T05:46:36.473Z,71.86
2018-08-18T05:47:36.704Z,71.67
2018-08-18T05:48:36.746Z,71.58
2018-08-18T05:49:36.892Z,71.34
2018-08-18T05:50:37.063Z,71.48
2018-08-18T05:51:37.202Z,70.96
2018-08-18T05:52:37.352Z,70.90
2018-08-18T05:53:37.488Z,70.42
2018-08-18T05:54:37.649Z,70.61
2018-08-18T05:55:37.788Z,70.42
2018-08-18T05:56:37.931Z,70.51
2018-08-18T05:57:38.097Z,70.70
2018-08-18T05:58:38.240Z,70.80
2018-08-18T05:59:38.386Z,70.42
2018-08-18T06:00:38.523Z,70.51
2018-08-18T06:01:38.679Z,70.13
2018-08-18T06:02:38.808Z,70.13
2018-08-18T06:03:38.945Z,70.32
2018-08-18T06:04:39.087Z,70.32
2018-08-18T06:05:39.295Z,70.03
2018-08-18T06:06:39.374Z,70.32
2018-08-18T06:07:39.516Z,70.22
2018-08-18T06:08:39.696Z,70.64
2018-08-18T06:09:39.839Z,70.42
2018-08-18T06:10:39.973Z,70.51
2018-08-18T06:11:40.111Z,70.32
2018-08-18T06:12:40.258Z,70.22
2018-08-18T06:13:40.391Z,70.22
2018-08-18T06:14:40.537Z,69.93
2018-08-18T06:15:40.671Z,70.13
2018-08-18T06:16:40.807Z,69.45
2018-08-18T06:17:40.983Z,69.84
2018-08-18T06:18:41.128Z,69.55
2018-08-18T06:19:41.269Z,69.84
2018-08-18T06:20:41.438Z,70.13
2018-08-18T06:21:41.579Z,69.74
2018-08-18T06:22:41.725Z,69.78
2018-08-18T06:23:41.863Z,69.39
2018-08-18T06:24:42.009Z,69.68
2018-08-18T06:25:42.149Z,69.84
2018-08-18T06:26:42.291Z,69.78
2018-08-18T06:27:42.441Z,70.06
2018-08-18T06:28:42.591Z,69.97
2018-08-18T06:29:42.729Z,69.78
2018-08-18T06:30:42.861Z,69.58
2018-08-18T06:31:43.028Z,69.87
2018-08-18T06:32:43.233Z,69.78
2018-08-18T06:33:43.258Z,69.78
2018-08-18T06:34:43.509Z,69.97
2018-08-18T06:35:43.563Z,70.16
2018-08-18T06:36:43.702Z,69.97
2018-08-18T06:37:43.839Z,69.58
2018-08-18T06:38:43.976Z,70.06
2018-08-18T06:39:44.128Z,69.78
2018-08-18T06:40:44.262Z,69.87
2018-08-18T06:41:44.492Z,70.54
2018-08-18T06:42:44.542Z,70.16
2018-08-18T06:43:44.706Z,70.16
2018-08-18T06:44:44.844Z,69.78
2018-08-18T06:45:44.985Z,69.97
2018-08-18T06:46:45.161Z,69.78
2018-08-18T06:47:45.290Z,69.78
2018-08-18T06:48:45.434Z,69.87
2018-08-18T06:49:45.573Z,69.87
2018-08-18T06:50:45.740Z,69.68
2018-08-18T06:51:45.877Z,69.68
2018-08-18T06:52:46.012Z,70.10
2018-08-18T06:53:46.162Z,69.39
2018-08-18T06:54:46.370Z,69.39
2018-08-18T06:55:46.482Z,68.94
2018-08-18T06:56:46.617Z,69.23
2018-08-18T06:57:46.766Z,68.94
2018-08-18T06:58:46.937Z,69.32
2018-08-18T06:59:47.075Z,69.04
2018-08-18T07:00:47.223Z,68.84
2018-08-18T07:01:47.359Z,68.75
2018-08-18T07:02:47.510Z,69.13
2018-08-18T07:03:47.643Z,69.04
2018-08-18T07:04:47.783Z,69.13
2018-08-18T07:05:47.926Z,69.32
2018-08-18T07:06:48.086Z,69.32
2018-08-18T07:07:48.220Z,68.84
2018-08-18T07:08:48.365Z,69.04
2018-08-18T07:09:48.532Z,68.75
2018-08-18T07:10:48.717Z,69.13
2018-08-18T07:11:48.862Z,68.84
2018-08-18T07:12:48.999Z,69.04
2018-08-18T07:13:49.140Z,68.75
2018-08-18T07:14:49.284Z,68.55
2018-08-18T07:15:49.425Z,68.65
2018-08-18T07:16:49.563Z,68.75
2018-08-18T07:17:49.707Z,68.84
2018-08-18T07:18:49.854Z,67.88
2018-08-18T07:19:49.992Z,67.88
2018-08-18T07:20:50.133Z,67.01
2018-08-18T07:21:50.273Z,67.01
2018-08-18T07:22:50.412Z,67.01
2018-08-18T07:23:50.557Z,66.85
2018-08-18T07:24:50.694Z,66.53
2018-08-18T07:25:50.838Z,66.91
2018-08-18T07:26:50.978Z,66.53
2018-08-18T07:27:51.118Z,66.72
2018-08-18T07:28:51.391Z,66.72
2018-08-18T07:29:51.425Z,66.82
2018-08-18T07:30:51.546Z,66.82
2018-08-18T07:31:51.687Z,66.56
2018-08-18T07:32:51.829Z,66.53
2018-08-18T07:33:51.968Z,66.66
2018-08-18T07:34:52.111Z,66.43
2018-08-18T07:35:52.249Z,66.14
2018-08-18T07:36:52.424Z,65.98
2018-08-18T07:37:52.559Z,65.88
2018-08-18T07:38:52.701Z,65.78
2018-08-18T07:39:52.836Z,65.50
2018-08-18T07:40:52.990Z,65.69
2018-08-18T07:41:53.135Z,65.88
2018-08-18T07:42:53.275Z,66.17
2018-08-18T07:43:53.421Z,66.56
2018-08-18T07:44:53.601Z,66.36
2018-08-18T07:45:53.731Z,66.75
2018-08-18T07:46:53.876Z,66.75
2018-08-18T07:47:54.015Z,66.08
2018-08-18T07:48:54.186Z,65.78
2018-08-18T07:49:54.324Z,65.59
2018-08-18T07:50:54.489Z,65.50
2018-08-18T07:51:54.632Z,65.01
2018-08-18T07:52:54.765Z,65.50
2018-08-18T07:53:54.908Z,65.69
2018-08-18T07:54:55.085Z,65.40
2018-08-18T07:55:55.221Z,65.59
2018-08-18T07:56:55.402Z,65.59
2018-08-18T07:57:55.531Z,65.40
2018-08-18T07:58:55.672Z,65.59
2018-08-18T07:59:55.869Z,65.40
2018-08-18T08:00:55.967Z,65.50
2018-08-18T08:01:56.110Z,65.78
2018-08-18T08:02:56.266Z,65.59
2018-08-18T08:03:56.404Z,65.78
2018-08-18T08:04:56.542Z,65.11
2018-08-18T08:05:56.696Z,65.43
2018-08-18T08:06:56.827Z,65.63
2018-08-18T08:07:56.972Z,64.85
2018-08-18T08:08:57.111Z,64.66
2018-08-18T08:09:57.261Z,64.56
2018-08-18T08:10:57.402Z,65.14
2018-08-18T08:11:57.547Z,65.34
2018-08-18T08:12:57.764Z,64.85
2018-08-18T08:13:57.831Z,64.66
2018-08-18T08:14:57.974Z,64.85
2018-08-18T08:15:58.115Z,64.85
2018-08-18T08:16:58.256Z,64.85
2018-08-18T08:17:58.394Z,64.95
2018-08-18T08:18:58.535Z,64.27
2018-08-18T08:19:58.681Z,64.37
2018-08-18T08:20:58.826Z,64.08
2018-08-18T08:21:58.965Z,64.56
2018-08-18T08:22:59.108Z,63.89
2018-08-18T08:23:59.245Z,63.50
2018-08-18T08:24:59.391Z,63.79
2018-08-18T08:25:59.538Z,63.89
2018-08-18T08:26:59.682Z,63.89
2018-08-18T08:27:59.823Z,64.85
2018-08-18T08:28:59.962Z,64.95
2018-08-18T08:30:00.107Z,64.95
2018-08-18T08:31:00.255Z,64.66
2018-08-18T08:32:00.394Z,64.76
2018-08-18T08:33:00.541Z,64.95
2018-08-18T08:34:00.691Z,64.95
2018-08-18T08:35:00.831Z,64.66
2018-08-18T08:36:00.972Z,64.56
2018-08-18T08:37:01.134Z,64.18
2018-08-18T08:38:01.311Z,64.56
2018-08-18T08:39:01.460Z,64.98
2018-08-18T08:40:01.598Z,64.47
2018-08-18T08:41:01.775Z,64.95
2018-08-18T08:42:01.933Z,65.05
2018-08-18T08:43:02.061Z,64.08
2018-08-18T08:44:02.203Z,64.08
2018-08-18T08:45:02.703Z,63.79
2018-08-18T08:46:02.510Z,64.18
2018-08-18T08:47:02.544Z,63.89
2018-08-18T08:48:02.687Z,64.08
2018-08-18T08:49:02.905Z,64.08
2018-08-18T08:50:03.867Z,64.85
2018-08-18T08:52:35.312Z,64.08
2018-08-18T08:53:35.449Z,63.98
2018-08-18T08:54:35.594Z,64.85
2018-08-18T08:55:35.739Z,63.82
2018-08-18T08:56:35.885Z,63.92
2018-08-18T08:57:36.022Z,63.92
2018-08-18T08:58:36.168Z,63.92
2018-08-18T08:59:36.346Z,63.82
2018-08-18T09:00:36.482Z,63.14
2018-08-18T09:01:36.619Z,63.14
2018-08-18T09:02:36.761Z,64.21
2018-08-18T09:03:36.899Z,63.14
2018-08-18T09:04:37.064Z,62.85
2018-08-18T09:05:37.205Z,62.98
2018-08-18T09:06:37.349Z,63.37
2018-08-18T09:07:37.491Z,63.46
2018-08-18T09:08:37.678Z,63.37
2018-08-18T09:09:37.815Z,63.46
2018-08-18T09:10:37.957Z,63.46
2018-08-18T09:11:38.095Z,62.69
2018-08-18T09:12:38.259Z,62.79
2018-08-18T09:13:38.398Z,63.08
2018-08-18T09:14:38.539Z,63.76
2018-08-18T09:15:38.691Z,63.66
2018-08-18T09:16:38.821Z,63.66
2018-08-18T09:17:38.964Z,63.66
2018-08-18T09:18:39.110Z,62.56
2018-08-18T09:19:39.234Z,63.43
2018-08-18T09:20:39.373Z,63.37
2018-08-18T09:21:39.520Z,63.37
2018-08-18T09:22:39.664Z,63.08
2018-08-18T09:23:40.556Z,63.46
2018-08-18T09:24:39.960Z,63.18
2018-08-18T09:25:40.108Z,62.59
2018-08-18T09:26:40.252Z,62.40
2018-08-18T09:27:40.394Z,62.21
2018-08-18T09:28:40.535Z,62.21
2018-08-18T09:29:40.674Z,62.21
2018-08-18T09:30:40.816Z,62.40
2018-08-18T09:31:40.969Z,62.30
2018-08-18T09:32:41.328Z,62.30
2018-08-18T09:33:41.271Z,62.11
2018-08-18T09:34:41.446Z,62.40
2018-08-18T09:35:41.584Z,62.40
2018-08-18T09:36:41.722Z,63.37
2018-08-18T09:37:41.872Z,63.18
2018-08-18T09:38:42.009Z,62.88
2018-08-18T09:39:42.148Z,63.66
2018-08-18T09:40:42.290Z,62.79
2018-08-18T09:41:42.463Z,62.50
2018-08-18T09:42:42.605Z,62.53
2018-08-18T09:43:42.741Z,61.76
2018-08-18T09:44:42.909Z,62.34
2018-08-18T09:45:43.042Z,62.04
2018-08-18T09:46:43.203Z,61.95
2018-08-18T09:47:43.363Z,61.08
2018-08-18T09:48:43.498Z,60.78
2018-08-18T09:49:43.679Z,60.91
2018-08-18T09:50:43.796Z,60.14
2018-08-18T09:51:43.972Z,59.94
2018-08-18T09:52:44.042Z,60.24
2018-08-18T09:53:44.180Z,60.43
2018-08-18T09:54:44.323Z,60.04
2018-08-18T09:55:44.464Z,59.94
2018-08-18T09:56:44.615Z,59.94
2018-08-18T09:57:44.751Z,60.14
2018-08-18T09:58:44.900Z,60.14
2018-08-18T09:59:45.037Z,59.59
2018-08-18T10:00:45.181Z,59.49
2018-08-18T10:01:46.296Z,59.00
2018-08-18T10:02:45.502Z,58.91
2018-08-18T10:03:45.658Z,58.81
2018-08-18T10:04:45.802Z,59.00
2018-08-18T10:05:45.936Z,58.72
2018-08-18T10:06:46.106Z,58.62
2018-08-18T10:07:46.222Z,58.33
2018-08-18T10:08:46.365Z,57.84
2018-08-18T10:09:46.509Z,57.94
2018-08-18T10:10:46.650Z,57.94
2018-08-18T10:11:46.792Z,57.45
2018-08-18T10:12:46.940Z,57.17
2018-08-18T10:13:47.709Z,57.36
2018-08-18T10:14:47.214Z,57.91
2018-08-18T10:15:47.367Z,58.23
2018-08-18T10:16:47.542Z,58.39
2018-08-18T10:17:47.681Z,58.81
2018-08-18T10:18:47.826Z,58.11
2018-08-18T10:19:47.989Z,58.20
2018-08-18T10:20:48.121Z,58.14
2018-08-18T10:21:48.266Z,58.42
2018-08-18T10:22:48.426Z,58.72
2018-08-18T10:23:53.721Z,58.52
2018-08-18T10:24:48.683Z,58.81
2018-08-18T10:25:49.718Z,58.23
2018-08-18T10:26:49.413Z,57.84
2018-08-18T10:27:51.909Z,58.04
2018-08-18T10:28:54.756Z,57.87
2018-08-18T10:29:49.520Z,57.97
2018-08-18T10:30:50.068Z,58.06
2018-08-18T10:31:49.827Z,58.26
2018-08-18T10:32:49.998Z,57.87
2018-08-18T10:33:50.141Z,57.97
2018-08-18T10:34:50.280Z,57.87
2018-08-18T10:35:52.773Z,57.78
2018-08-18T10:36:50.623Z,57.26
2018-08-18T10:37:50.659Z,56.90
2018-08-18T10:38:50.798Z,56.61
2018-08-18T10:39:50.940Z,56.32
2018-08-18T10:40:51.143Z,57.09
2018-08-18T10:41:51.233Z,57.09
2018-08-18T10:42:51.710Z,56.90
2018-08-18T10:43:51.753Z,57.00
2018-08-18T10:44:51.517Z,56.41
2018-08-18T10:45:51.655Z,56.39
2018-08-18T10:46:51.795Z,56.87
2018-08-18T10:47:51.940Z,57.19
2018-08-18T10:48:52.082Z,57.00
2018-08-18T10:49:52.257Z,56.32
2018-08-18T10:50:52.397Z,56.41
2018-08-18T10:51:52.537Z,56.32
2018-08-18T10:52:52.695Z,56.13
2018-08-18T10:53:52.830Z,56.32
2018-08-18T10:54:52.980Z,56.71
2018-08-18T10:55:53.131Z,54.96
2018-08-18T10:56:53.264Z,55.35
2018-08-18T10:57:53.413Z,56.32
2018-08-18T10:58:53.570Z,56.81
2018-08-18T10:59:53.710Z,56.13
2018-08-18T11:00:53.854Z,56.03
2018-08-18T11:01:54.021Z,56.23
2018-08-18T11:02:54.158Z,56.13
2018-08-18T11:03:54.320Z,55.26
2018-08-18T11:04:54.442Z,55.44
2018-08-18T11:05:54.594Z,55.18
2018-08-18T11:06:54.737Z,54.02
2018-08-18T11:07:54.892Z,53.89
2018-08-18T11:08:55.067Z,54.09
2018-08-18T11:09:55.217Z,54.48
2018-08-18T11:10:55.348Z,54.19
2018-08-18T11:11:55.514Z,54.77
2018-08-18T11:12:55.667Z,54.48
2018-08-18T11:13:55.826Z,54.19
2018-08-18T11:14:55.968Z,53.92
2018-08-18T11:15:56.111Z,53.24
2018-08-18T11:16:56.281Z,53.44
2018-08-18T11:17:56.416Z,53.15
2018-08-18T11:18:56.562Z,52.95
2018-08-18T11:19:56.724Z,52.95
2018-08-18T11:20:56.871Z,52.95
2018-08-18T11:21:57.084Z,53.37
2018-08-18T11:22:57.170Z,52.69
2018-08-18T11:23:57.320Z,52.69
2018-08-18T11:24:57.470Z,53.30
2018-08-18T11:25:57.615Z,53.00
2018-08-18T11:26:57.760Z,51.75
2018-08-18T11:27:57.896Z,51.35
2018-08-18T11:28:58.061Z,50.77
2018-08-18T11:29:58.202Z,50.77
2018-08-18T11:30:58.338Z,50.68
2018-08-18T11:31:58.476Z,50.96
2018-08-18T11:32:58.620Z,51.26
2018-08-18T11:33:58.766Z,51.45
2018-08-18T11:34:58.909Z,51.55
2018-08-18T11:35:59.051Z,51.67
2018-08-18T11:36:59.193Z,51.35
2018-08-18T11:37:59.338Z,50.99
2018-08-18T11:38:59.487Z,51.09
2018-08-18T11:39:59.624Z,50.70
2018-08-18T11:40:59.769Z,50.80
2018-08-18T11:41:59.914Z,50.89
2018-08-18T11:43:00.057Z,49.82
2018-08-18T11:44:00.206Z,49.56
2018-08-18T11:45:00.357Z,49.37
2018-08-18T11:46:00.497Z,49.15
2018-08-18T11:47:00.658Z,49.17
2018-08-18T11:48:00.787Z,49.17
2018-08-18T11:49:00.940Z,48.78
2018-08-18T11:50:01.080Z,48.49
2018-08-18T11:51:01.222Z,48.20
2018-08-18T11:52:01.363Z,48.22
2018-08-18T11:53:01.503Z,49.58
2018-08-18T11:54:01.653Z,48.32
2018-08-18T11:55:01.794Z,47.54
2018-08-18T11:56:01.960Z,48.61
2018-08-18T11:57:02.095Z,48.05
2018-08-18T11:58:02.250Z,48.34
2018-08-18T11:59:02.376Z,47.17
2018-08-18T12:00:02.551Z,46.59
2018-08-18T12:01:02.720Z,46.91
2018-08-18T12:02:02.876Z,46.32
2018-08-18T12:03:03.018Z,46.64
2018-08-18T12:04:03.162Z,45.67
2018-08-18T12:05:03.312Z,45.47
2018-08-18T12:06:03.461Z,45.37
2018-08-18T12:07:03.615Z,45.86
2018-08-18T12:08:03.803Z,45.49
2018-08-18T12:09:03.899Z,44.98
2018-08-18T12:10:04.047Z,44.62
2018-08-18T12:11:04.254Z,43.25
2018-08-18T12:12:04.333Z,42.45
2018-08-18T12:13:04.471Z,42.06
2018-08-18T12:14:04.628Z,42.57
2018-08-18T12:15:04.773Z,42.18
2018-08-18T12:16:04.921Z,42.76
2018-08-18T12:17:05.075Z,41.30
2018-08-18T12:18:05.236Z,40.03
2018-08-18T12:19:05.379Z,39.94
2018-08-18T12:20:05.520Z,39.55
2018-08-18T12:21:05.672Z,39.65
2018-08-18T12:22:05.826Z,39.94
2018-08-18T12:23:05.974Z,39.55
2018-08-18T12:24:06.119Z,39.16
2018-08-18T12:25:06.263Z,38.96
2018-08-18T12:26:06.403Z,39.06
2018-08-18T12:27:06.550Z,39.06
2018-08-18T12:28:06.706Z,39.55
2018-08-18T12:29:06.851Z,40.06
2018-08-18T12:30:07.078Z,40.16
2018-08-18T12:31:07.162Z,39.67
2018-08-18T12:32:07.316Z,38.59
2018-08-18T12:33:07.461Z,39.57
2018-08-18T12:34:07.611Z,39.37
2018-08-18T12:35:07.760Z,38.98
2018-08-18T12:36:07.914Z,39.08
2018-08-18T12:37:08.100Z,39.18
2018-08-18T12:38:08.204Z,39.08
2018-08-18T12:39:08.356Z,39.08
2018-08-18T12:40:08.502Z,39.28
2018-08-18T12:41:08.665Z,39.67
2018-08-18T12:42:08.817Z,40.08
2018-08-18T12:43:09.133Z,40.08
2018-08-18T12:44:09.061Z,39.98
2018-08-18T12:45:09.218Z,39.61
2018-08-18T12:46:09.371Z,39.80
2018-08-18T12:47:09.514Z,39.61
2018-08-18T12:48:09.665Z,38.82
2018-08-18T12:49:09.820Z,39.02
2018-08-18T12:50:10.056Z,39.02
2018-08-18T12:51:10.115Z,38.94
2018-08-18T12:52:10.263Z,39.23
2018-08-18T12:53:10.404Z,38.84
2018-08-18T12:54:10.552Z,38.45
2018-08-18T12:55:10.703Z,38.16
2018-08-18T12:56:10.868Z,38.35